Time;durP1;ratioP1;P1;durP2;ratioP2;P2;SDS_P1;SDS_P2;PMS_P1;PMS_P2;Temp;Humidity;BMP_temperature;BMP_pressure;BME280_temperature;BME280_humidity;BME280_pressure;Samples;Min_cycle;Max_cycle;Signal;HPM_P1;HPM_P2
2021/11/01 00:00:06;;;;;;;5.28;2.25;;;;;;;;;;5086190;28;20027;-72
2021/11/01 00:02:32;;;;;;;4.78;3.13;;;;;;;;;;5086122;28;20029;-72
2021/11/01 00:04:58;;;;;;;6.88;2.70;;;;;;;;;;5086140;28;20031;-72
2021/11/01 00:07:25;;;;;;;6.50;2.85;;;;;;;;;;5086233;28;20028;-72
2021/11/01 00:09:51;;;;;;;5.20;2.40;;;;;;;;;;5086180;28;20035;-72
2021/11/01 00:12:17;;;;;;;8.07;2.72;;;;;;;;;;5085707;28;20025;-73
2021/11/01 00:14:43;;;;;;;3.83;2.00;;;;;;;;;;5085760;28;20095;-72
2021/11/01 00:17:09;;;;;;;6.50;2.45;;;;;;;;;;5085669;28;20029;-72
2021/11/01 00:19:35;;;;;;;4.25;1.83;;;;;;;;;;5085720;28;20044;-72
2021/11/01 00:22:01;;;;;;;6.03;3.75;;;;;;;;;;5085978;28;20020;-71
2021/11/01 00:24:27;;;;;;;3.53;1.90;;;;;;;;;;5086033;28;20417;-72
2021/11/01 00:26:53;;;;;;;6.30;2.80;;;;;;;;;;5085980;28;20398;-72
2021/11/01 00:29:19;;;;;;;2.75;1.90;;;;;;;;;;5085611;28;20036;-71
2021/11/01 00:31:45;;;;;;;4.25;2.10;;;;;;;;;;5085730;28;20024;-72
2021/11/01 00:34:11;;;;;;;4.50;2.15;;;;;;;;;;5085604;28;20029;-75
2021/11/01 00:36:38;;;;;;;6.88;2.40;;;;;;;;;;5085792;28;20028;-72
2021/11/01 00:39:04;;;;;;;3.58;2.08;;;;;;;;;;5085746;28;20029;-73
2021/11/01 00:41:30;;;;;;;5.18;2.50;;;;;;;;;;5085663;28;20024;-72
2021/11/01 00:43:58;;;;;;;10.70;4.05;;;;;;;;;;5089183;28;20025;-72
2021/11/01 00:46:24;;;;;;;5.93;2.80;;;;;;;;;;5088812;28;20021;-75
2021/11/01 00:48:50;;;;;;;10.45;3.83;;;;;;;;;;5089059;28;20540;-75
2021/11/01 00:51:16;;;;;;;6.15;3.42;;;;;;;;;;5088770;28;20045;-70
2021/11/01 00:53:48;;;;;;;10.25;3.28;;;;;;;;;;5089628;28;20033;-71
2021/11/01 00:56:14;;;;;;;7.80;2.42;;;;;;;;;;5089417;28;20047;-72
2021/11/01 00:58:41;;;;;;;7.10;2.17;;;;;;;;;;5087873;28;20028;-71
2021/11/01 01:01:07;;;;;;;4.03;2.25;;;;;;;;;;5089286;28;20020;-72
2021/11/01 01:03:34;;;;;;;3.80;2.42;;;;;;;;;;5089581;28;20023;-72
2021/11/01 01:06:02;;;;;;;9.20;2.65;;;;;;;;;;5089211;28;20048;-74
2021/11/01 01:08:28;;;;;;;5.55;2.42;;;;;;;;;;5087207;28;20031;-71
2021/11/01 01:10:55;;;;;;;3.45;2.10;;;;;;;;;;5089007;28;20021;-73
2021/11/01 01:13:23;;;;;;;6.57;2.22;;;;;;;;;;5088772;28;20029;-72
2021/11/01 01:16:08;;;;;;;5.20;2.03;;;;;;;;;;5088928;28;20023;-72
2021/11/01 01:18:36;;;;;;;3.28;2.15;;;;;;;;;;5088557;28;20084;-72
2021/11/01 01:22:10;;;;;;;7.47;2.20;;;;;;;;;;5088830;28;20021;-72
2021/11/01 01:23:50;;;;;;;3.60;2.20;;;;;;;;;;5088384;28;20040;-72
2021/11/01 01:26:17;;;;;;;3.90;2.30;;;;;;;;;;5088797;28;20467;-73
2021/11/01 01:28:44;;;;;;;6.03;2.03;;;;;;;;;;5088714;28;20032;-72
2021/11/01 01:31:10;;;;;;;14.52;3.15;;;;;;;;;;5088677;28;20038;-72
2021/11/01 01:33:37;;;;;;;4.43;1.95;;;;;;;;;;5088479;28;20421;-73
2021/11/01 01:36:03;;;;;;;5.57;2.65;;;;;;;;;;5088607;28;20474;-72
2021/11/01 01:38:29;;;;;;;5.50;2.45;;;;;;;;;;5088536;28;20052;-72
2021/11/01 01:40:55;;;;;;;6.75;3.20;;;;;;;;;;5088560;28;20021;-72
2021/11/01 01:43:22;;;;;;;3.85;2.22;;;;;;;;;;5088537;28;20025;-72
2021/11/01 01:45:48;;;;;;;4.40;2.40;;;;;;;;;;5088350;28;20025;-76
2021/11/01 01:48:14;;;;;;;6.22;1.95;;;;;;;;;;5088447;28;20028;-72
2021/11/01 01:50:41;;;;;;;4.40;1.88;;;;;;;;;;5088159;28;20050;-72
2021/11/01 01:53:08;;;;;;;7.45;2.00;;;;;;;;;;5087937;28;20028;-72
2021/11/01 01:55:34;;;;;;;4.25;2.17;;;;;;;;;;5088099;28;20024;-71
2021/11/01 01:58:00;;;;;;;4.53;2.00;;;;;;;;;;5088034;28;20021;-72
2021/11/01 02:03:12;;;;;;;4.68;1.92;;;;;;;;;;5087921;28;20040;-72
2021/11/01 02:06:01;;;;;;;5.63;2.53;;;;;;;;;;5087722;28;20020;-72
2021/11/01 02:08:29;;;;;;;6.45;2.05;;;;;;;;;;5087928;28;20058;-72
2021/11/01 02:10:59;;;;;;;7.00;2.05;;;;;;;;;;5087891;28;20024;-73
2021/11/01 02:13:26;;;;;;;7.85;2.20;;;;;;;;;;5087762;28;20126;-74
2021/11/01 02:15:55;;;;;;;23.05;3.05;;;;;;;;;;5087856;28;20039;-73
2021/11/01 02:18:22;;;;;;;5.22;2.00;;;;;;;;;;5087834;28;20027;-72
2021/11/01 02:21:04;;;;;;;5.90;2.00;;;;;;;;;;5087653;28;20025;-71
2021/11/01 02:23:31;;;;;;;3.70;2.00;;;;;;;;;;5086335;28;20028;-72
2021/11/01 02:25:59;;;;;;;5.53;1.90;;;;;;;;;;5087712;28;20526;-73
2021/11/01 02:28:32;;;;;;;5.30;2.10;;;;;;;;;;5087753;28;20044;-72
2021/11/01 02:30:59;;;;;;;5.68;2.38;;;;;;;;;;5086338;28;20364;-71
2021/11/01 02:33:26;;;;;;;7.82;2.20;;;;;;;;;;5087260;28;20031;-71
2021/11/01 02:35:52;;;;;;;5.07;2.40;;;;;;;;;;5086218;28;20025;-74
2021/11/01 02:38:20;;;;;;;7.55;2.17;;;;;;;;;;5087892;28;20085;-72
2021/11/01 02:40:47;;;;;;;9.75;3.28;;;;;;;;;;5087286;28;20138;-72
2021/11/01 02:43:14;;;;;;;6.35;2.50;;;;;;;;;;5087080;28;20035;-72
2021/11/01 02:45:41;;;;;;;6.40;2.35;;;;;;;;;;5087504;28;20031;-72
2021/11/01 02:48:07;;;;;;;4.30;1.90;;;;;;;;;;5087463;28;20024;-73
2021/11/01 02:50:34;;;;;;;5.03;2.40;;;;;;;;;;5086886;28;20082;-71
2021/11/01 02:53:00;;;;;;;4.57;2.30;;;;;;;;;;5086822;28;20056;-72
2021/11/01 02:55:26;;;;;;;5.97;2.58;;;;;;;;;;5085689;28;20027;-71
2021/11/01 02:57:52;;;;;;;7.93;2.33;;;;;;;;;;5087018;28;20042;-72
2021/11/01 03:00:21;;;;;;;4.70;2.10;;;;;;;;;;5086825;28;20028;-72
2021/11/01 03:02:48;;;;;;;3.90;2.28;;;;;;;;;;5086945;28;20017;-74
2021/11/01 03:05:17;;;;;;;3.17;1.85;;;;;;;;;;5086125;28;20024;-72
2021/11/01 03:07:43;;;;;;;5.13;2.30;;;;;;;;;;5086906;28;20028;-73
2021/11/01 03:10:10;;;;;;;8.98;2.25;;;;;;;;;;5086819;28;20536;-72
2021/11/01 03:12:38;;;;;;;5.57;1.85;;;;;;;;;;5086590;28;20040;-74
2021/11/01 03:15:06;;;;;;;4.88;2.55;;;;;;;;;;5086307;28;20048;-72
2021/11/01 03:17:35;;;;;;;10.25;2.00;;;;;;;;;;5086621;28;20027;-72
2021/11/01 03:20:06;;;;;;;4.05;2.13;;;;;;;;;;5086498;28;20099;-72
2021/11/01 03:22:33;;;;;;;5.30;2.20;;;;;;;;;;5086608;28;20016;-71
2021/11/01 03:25:01;;;;;;;6.35;3.05;;;;;;;;;;5086270;28;20036;-71
2021/11/01 03:27:28;;;;;;;7.28;2.80;;;;;;;;;;5086669;28;20013;-71
2021/11/01 03:29:55;;;;;;;5.30;1.70;;;;;;;;;;5085060;28;20021;-72
2021/11/01 03:32:24;;;;;;;6.30;2.42;;;;;;;;;;5086339;28;20029;-72
2021/11/01 03:34:50;;;;;;;5.50;2.13;;;;;;;;;;5086588;28;20063;-72
2021/11/01 03:37:18;;;;;;;7.93;2.40;;;;;;;;;;5086046;28;20032;-74
2021/11/01 03:39:46;;;;;;;6.15;2.85;;;;;;;;;;5086528;28;20084;-72
2021/11/01 03:42:12;;;;;;;6.10;2.35;;;;;;;;;;5086438;28;20012;-72
2021/11/01 03:44:44;;;;;;;4.30;1.83;;;;;;;;;;5086432;28;20474;-72
2021/11/01 03:47:12;;;;;;;6.93;2.65;;;;;;;;;;5086432;28;20024;-71
2021/11/01 03:49:47;;;;;;;6.30;3.17;;;;;;;;;;5086479;28;20016;-71
2021/11/01 03:52:16;;;;;;;3.22;1.67;;;;;;;;;;5086322;28;20132;-72
2021/11/01 03:54:43;;;;;;;5.75;2.50;;;;;;;;;;5086286;28;20032;-72
2021/11/01 03:57:10;;;;;;;6.05;2.28;;;;;;;;;;5086350;28;20070;-72
2021/11/01 03:59:38;;;;;;;7.20;1.95;;;;;;;;;;5086393;28;20162;-73
2021/11/01 04:02:04;;;;;;;10.43;2.58;;;;;;;;;;5086078;28;20027;-74
2021/11/01 04:04:30;;;;;;;7.70;2.15;;;;;;;;;;5085987;28;20067;-72
2021/11/01 04:07:00;;;;;;;7.78;2.65;;;;;;;;;;5085067;28;20116;-72
2021/11/01 04:09:26;;;;;;;6.40;2.20;;;;;;;;;;5086116;28;20021;-73
2021/11/01 04:11:53;;;;;;;5.68;1.95;;;;;;;;;;5086169;28;20029;-72
2021/11/01 04:14:24;;;;;;;8.82;2.13;;;;;;;;;;5084698;28;20032;-73
2021/11/01 04:17:02;;;;;;;4.50;1.90;;;;;;;;;;5088096;28;20025;-72
2021/11/01 04:19:34;;;;;;;5.47;2.25;;;;;;;;;;5090211;28;20039;-73
2021/11/01 04:22:01;;;;;;;4.88;1.77;;;;;;;;;;5089998;28;20024;-73
2021/11/01 04:24:30;;;;;;;5.65;2.20;;;;;;;;;;5089980;28;20074;-72
2021/11/01 04:26:56;;;;;;;4.63;2.35;;;;;;;;;;5090030;28;20017;-72
2021/11/01 04:29:25;;;;;;;3.92;2.20;;;;;;;;;;5089783;28;20053;-72
2021/11/01 04:31:58;;;;;;;3.13;1.85;;;;;;;;;;5089866;28;20051;-72
2021/11/01 04:34:36;;;;;;;4.68;1.60;;;;;;;;;;5089827;28;20360;-72
2021/11/01 04:37:02;;;;;;;3.35;1.75;;;;;;;;;;5089952;28;20080;-73
2021/11/01 04:53:05;;;;;;;7.65;2.35;;;;;;;;;;5087894;28;20070;-71
2021/11/01 04:55:32;;;;;;;16.00;3.33;;;;;;;;;;5089438;28;20021;-73
2021/11/01 04:57:58;;;;;;;2.83;1.50;;;;;;;;;;5089344;28;20020;-72
2021/11/01 05:00:25;;;;;;;4.03;1.98;;;;;;;;;;5089506;28;20025;-72
2021/11/01 05:05:56;;;;;;;3.38;2.13;;;;;;;;;;5087155;28;20043;-72
2021/11/01 05:08:26;;;;;;;7.97;2.15;;;;;;;;;;5087510;28;20032;-72
2021/11/01 05:11:00;;;;;;;2.80;1.35;;;;;;;;;;5087989;28;20059;-72
2021/11/01 05:13:31;;;;;;;7.28;2.10;;;;;;;;;;5089403;28;20036;-76
2021/11/01 05:18:36;;;;;;;2.33;1.50;;;;;;;;;;5089217;28;20032;-72
2021/11/01 05:23:35;;;;;;;8.07;1.90;;;;;;;;;;5089160;28;20025;-72
2021/11/01 05:26:06;;;;;;;3.88;1.70;;;;;;;;;;5089477;28;20092;-72
2021/11/01 05:31:20;;;;;;;10.23;2.17;;;;;;;;;;5088830;28;20025;-74
2021/11/01 05:36:13;;;;;;;6.95;1.88;;;;;;;;;;5088909;28;20036;-72
2021/11/01 05:38:39;;;;;;;5.47;1.88;;;;;;;;;;5088743;28;20028;-72
2021/11/01 05:41:05;;;;;;;7.05;1.70;;;;;;;;;;5087431;28;20048;-72
2021/11/01 05:43:32;;;;;;;5.38;1.95;;;;;;;;;;5087444;28;20024;-73
2021/11/01 05:45:58;;;;;;;7.65;2.40;;;;;;;;;;5088878;28;20024;-71
2021/11/01 05:48:25;;;;;;;6.13;1.75;;;;;;;;;;5088858;28;20020;-72
2021/11/01 05:50:51;;;;;;;3.40;2.05;;;;;;;;;;5088523;28;20021;-72
2021/11/01 05:53:17;;;;;;;5.22;2.10;;;;;;;;;;5088407;28;20040;-71
2021/11/01 06:06:17;;;;;;;5.57;1.65;;;;;;;;;;5088103;28;20049;-72
2021/11/01 06:14:13;;;;;;;6.05;1.85;;;;;;;;;;5087815;28;20493;-73
2021/11/01 06:16:39;;;;;;;10.73;1.80;;;;;;;;;;5088010;28;20029;-72
2021/11/01 06:19:05;;;;;;;2.17;1.73;;;;;;;;;;5087966;28;20076;-72
2021/11/01 06:21:31;;;;;;;3.83;1.70;;;;;;;;;;5088223;28;20024;-72
2021/11/01 06:24:00;;;;;;;4.47;2.42;;;;;;;;;;5088022;28;20461;-71
2021/11/01 06:26:28;;;;;;;5.13;2.13;;;;;;;;;;5088398;28;20047;-72
2021/11/01 06:29:00;;;;;;;3.45;1.95;;;;;;;;;;5087874;28;20046;-71
2021/11/01 06:31:33;;;;;;;4.55;1.95;;;;;;;;;;5087815;28;20074;-73
2021/11/01 06:39:49;;;;;;;2.45;1.58;;;;;;;;;;5087104;28;20027;-73
2021/11/01 06:42:27;;;;;;;;;;;;;;;;;;5088114;28;20028;-72
2021/11/01 08:25:29;;;;;;;1.75;1.65;;;;;;;;;;5076804;28;20036;-75
2021/11/01 08:39:39;;;;;;;3.75;1.77;;;;;;;;;;5081464;28;20021;-76
2021/11/01 09:27:08;;;;;;;4.70;1.67;;;;;;;;;;5078907;28;20182;-76
2021/11/01 09:43:06;;;;;;;3.72;2.20;;;;;;;;;;5061701;28;20044;-75
2021/11/01 09:45:35;;;;;;;6.15;2.30;;;;;;;;;;5070506;28;20047;-76
2021/11/01 09:48:02;;;;;;;4.30;2.70;;;;;;;;;;5076067;28;20040;-75
2021/11/01 09:50:28;;;;;;;5.40;2.20;;;;;;;;;;5079525;28;20078;-75
2021/11/01 09:52:57;;;;;;;4.57;3.55;;;;;;;;;;5073801;28;20044;-77
2021/11/01 10:00:51;;;;;;;4.40;1.80;;;;;;;;;;5082404;28;20036;-75
2021/11/01 10:03:18;;;;;;;4.15;1.70;;;;;;;;;;5071570;28;20141;-75
2021/11/01 10:05:53;;;;;;;7.75;2.92;;;;;;;;;;5071264;28;20042;-75
2021/11/01 10:08:19;;;;;;;3.83;1.73;;;;;;;;;;5070901;28;20058;-76
2021/11/01 10:10:45;;;;;;;4.45;1.85;;;;;;;;;;5072239;28;20029;-74
2021/11/01 10:13:16;;;;;;;3.13;2.75;;;;;;;;;;5071979;28;20493;-75
2021/11/01 10:18:28;;;;;;;4.55;2.47;;;;;;;;;;5062741;28;20075;-76
2021/11/01 10:20:59;;;;;;;3.55;2.45;;;;;;;;;;5071713;28;20021;-75
2021/11/01 10:23:26;;;;;;;3.42;2.00;;;;;;;;;;5069537;28;20506;-75
2021/11/01 10:26:04;;;;;;;3.92;2.03;;;;;;;;;;5075845;28;20037;-76
2021/11/01 10:28:31;;;;;;;6.10;1.80;;;;;;;;;;5074033;28;20037;-76
2021/11/01 10:31:06;;;;;;;3.20;1.80;;;;;;;;;;5072886;28;20787;-75
2021/11/01 10:33:43;;;;;;;3.83;1.98;;;;;;;;;;5071811;28;20074;-76
2021/11/01 10:36:09;;;;;;;3.72;1.90;;;;;;;;;;5071573;28;20461;-76
2021/11/01 10:38:39;;;;;;;7.55;2.80;;;;;;;;;;5074259;28;20086;-75
2021/11/01 11:11:46;;;;;;;4.40;2.10;;;;;;;;;;5072607;28;20054;-75
2021/11/01 11:17:07;;;;;;;5.28;2.42;;;;;;;;;;5074596;28;20594;-76
2021/11/01 11:22:31;;;;;;;3.05;2.22;;;;;;;;;;5072041;28;20025;-75
2021/11/01 11:25:11;;;;;;;4.15;2.00;;;;;;;;;;5070985;28;20072;-75
2021/11/01 11:41:09;;;;;;;2.47;1.80;;;;;;;;;;5072281;28;20111;-75
2021/11/01 11:49:08;;;;;;;5.70;3.20;;;;;;;;;;5072303;28;20063;-76
2021/11/01 11:51:35;;;;;;;3.00;2.00;;;;;;;;;;5074319;28;20048;-78
2021/11/01 11:54:02;;;;;;;5.25;2.10;;;;;;;;;;5072448;28;20031;-77
2021/11/01 11:56:34;;;;;;;3.60;2.00;;;;;;;;;;5072333;28;20032;-77
2021/11/01 11:59:01;;;;;;;3.28;2.00;;;;;;;;;;5071783;28;20074;-76
2021/11/01 12:01:33;;;;;;;2.58;2.00;;;;;;;;;;5071928;28;20029;-76
2021/11/01 12:04:07;;;;;;;3.63;2.00;;;;;;;;;;5077366;28;20103;-76
2021/11/01 12:06:54;;;;;;;3.65;2.80;;;;;;;;;;5078725;28;20064;-75
2021/11/01 12:09:24;;;;;;;6.32;2.13;;;;;;;;;;5071743;28;20527;-77
2021/11/01 12:12:13;;;;;;;2.47;1.67;;;;;;;;;;5070418;28;20609;-76
2021/11/01 12:17:12;;;;;;;2.67;2.22;;;;;;;;;;5071148;28;20021;-75
2021/11/01 12:19:38;;;;;;;2.38;1.70;;;;;;;;;;5071379;28;20095;-75
2021/11/01 12:22:09;;;;;;;3.85;2.30;;;;;;;;;;5072007;28;20064;-75
2021/11/01 12:24:35;;;;;;;3.65;1.80;;;;;;;;;;5069614;28;20024;-76
2021/11/01 12:27:09;;;;;;;2.80;1.85;;;;;;;;;;5071621;28;20085;-76
2021/11/01 12:29:36;;;;;;;2.35;1.75;;;;;;;;;;5071290;28;20495;-77
2021/11/01 12:32:06;;;;;;;3.45;1.70;;;;;;;;;;5071029;28;20037;-75
2021/11/01 12:34:36;;;;;;;3.33;1.80;;;;;;;;;;5071751;28;20031;-74
2021/11/01 12:37:14;;;;;;;3.00;1.70;;;;;;;;;;5069622;28;20048;-75
2021/11/01 12:39:44;;;;;;;4.30;2.00;;;;;;;;;;5073504;28;20563;-76
2021/11/01 12:58:57;;;;;;;4.63;3.00;;;;;;;;;;5075151;28;20070;-77
2021/11/01 13:01:23;;;;;;;4.68;3.22;;;;;;;;;;5077341;28;20025;-76
2021/11/01 13:03:52;;;;;;;9.63;6.75;;;;;;;;;;5074211;28;20032;-74
2021/11/01 13:06:35;;;;;;;4.72;3.55;;;;;;;;;;5073974;28;20025;-75
2021/11/01 13:09:09;;;;;;;3.78;2.10;;;;;;;;;;5074277;28;20146;-75
2021/11/01 13:11:54;;;;;;;5.40;2.08;;;;;;;;;;5076087;28;20039;-76
2021/11/01 13:14:42;;;;;;;3.38;2.00;;;;;;;;;;5073025;28;20652;-77
2021/11/01 13:19:55;;;;;;;3.30;1.80;;;;;;;;;;5076908;28;20551;-75
2021/11/01 13:22:26;;;;;;;4.15;2.33;;;;;;;;;;5074061;28;20112;-76
2021/11/01 13:38:41;;;;;;;1.60;1.50;;;;;;;;;;5072932;28;20112;-76
2021/11/01 13:41:10;;;;;;;2.50;1.52;;;;;;;;;;5074281;28;20032;-75
2021/11/01 13:43:39;;;;;;;3.22;1.90;;;;;;;;;;5072016;28;20029;-76
2021/11/01 13:46:05;;;;;;;2.35;1.83;;;;;;;;;;5072807;28;20517;-76
2021/11/01 13:48:32;;;;;;;3.30;1.80;;;;;;;;;;5072434;28;20029;-76
2021/11/01 13:51:07;;;;;;;6.22;2.03;;;;;;;;;;5075466;28;20036;-74
2021/11/01 13:53:50;;;;;;;5.22;2.20;;;;;;;;;;5073054;28;20546;-76
2021/11/01 13:57:04;;;;;;;2.80;1.67;;;;;;;;;;5073283;28;20024;-75
2021/11/01 13:59:11;;;;;;;3.40;2.03;;;;;;;;;;5068573;28;20093;-74
2021/11/01 14:01:57;;;;;;;3.67;2.17;;;;;;;;;;5077225;28;20339;-77
2021/11/01 14:12:50;;;;;;;5.47;3.50;;;;;;;;;;5072012;28;20060;-76
2021/11/01 14:18:35;;;;;;;8.30;3.33;;;;;;;;;;5072221;28;20115;-76
2021/11/01 15:27:18;;;;;;;3.75;1.70;;;;;;;;;;5071836;28;20567;-74
2021/11/01 16:16:25;;;;;;;3.08;1.85;;;;;;;;;;5076732;28;20034;-77
2021/11/01 16:18:54;;;;;;;2.85;2.00;;;;;;;;;;5077045;28;20040;-75
2021/11/01 16:21:21;;;;;;;3.05;1.80;;;;;;;;;;5082863;28;20033;-75
2021/11/01 16:23:48;;;;;;;3.97;2.38;;;;;;;;;;5081255;28;20399;-76
2021/11/01 16:28:42;;;;;;;4.40;2.63;;;;;;;;;;5077552;28;20037;-75
2021/11/01 16:33:41;;;;;;;3.90;2.25;;;;;;;;;;5081403;28;20556;-76
2021/11/01 16:36:10;;;;;;;4.20;2.20;;;;;;;;;;5074238;28;20021;-76
2021/11/01 16:38:50;;;;;;;4.65;2.47;;;;;;;;;;5076784;28;20103;-74
2021/11/01 16:41:17;;;;;;;6.05;2.70;;;;;;;;;;5078204;28;20068;-75
2021/11/01 16:43:43;;;;;;;3.25;2.50;;;;;;;;;;5075156;28;20032;-75
2021/11/01 16:46:09;;;;;;;2.28;2.08;;;;;;;;;;5075905;28;20052;-75
2021/11/01 16:48:35;;;;;;;2.10;1.90;;;;;;;;;;5077443;28;20037;-76
2021/11/01 16:51:02;;;;;;;3.33;1.98;;;;;;;;;;5079669;28;20040;-76
2021/11/01 16:53:28;;;;;;;3.38;2.38;;;;;;;;;;5076411;28;20036;-76
2021/11/01 16:56:04;;;;;;;10.57;6.53;;;;;;;;;;5076069;28;20054;-75
2021/11/01 16:58:42;;;;;;;4.40;2.85;;;;;;;;;;5077226;28;20033;-77
2021/11/01 17:01:12;;;;;;;3.13;2.60;;;;;;;;;;5079077;28;20052;-76
2021/11/01 17:03:47;;;;;;;9.02;6.43;;;;;;;;;;5077049;28;20025;-76
2021/11/01 17:28:44;;;;;;;13.77;11.15;;;;;;;;;;5074501;28;20037;-75
2021/11/01 17:31:27;;;;;;;6.13;5.05;;;;;;;;;;5077762;28;20037;-76
2021/11/01 17:36:52;;;;;;;4.35;3.63;;;;;;;;;;5074302;28;20042;-75
2021/11/01 18:40:14;;;;;;;19.85;18.00;;;;;;;;;;5073124;28;20036;-75
2021/11/01 18:42:58;;;;;;;13.25;11.85;;;;;;;;;;5069232;28;20060;-75
2021/11/01 18:53:52;;;;;;;16.83;14.77;;;;;;;;;;5076775;28;20459;-73
2021/11/01 18:56:24;;;;;;;;;;;;;;;;;;5078863;28;20032;-73
2021/11/01 18:58:56;;;;;;;11.88;8.80;;;;;;;;;;5076972;28;19926;-73
2021/11/01 19:01:22;;;;;;;13.73;10.23;;;;;;;;;;5077408;28;20031;-74
2021/11/01 19:03:53;;;;;;;10.88;7.10;;;;;;;;;;5077362;28;20488;-73
2021/11/01 20:05:06;;;;;;;8.07;6.88;;;;;;;;;;5071625;28;20078;-73
2021/11/01 20:15:51;;;;;;;11.25;7.32;;;;;;;;;;5054126;28;20043;-73
2021/11/01 21:27:30;;;;;;;9.65;6.82;;;;;;;;;;5074663;28;20073;-74
2021/11/01 21:29:56;;;;;;;11.50;7.05;;;;;;;;;;5072284;28;20089;-75
2021/11/01 21:32:23;;;;;;;15.57;8.90;;;;;;;;;;5070535;28;20031;-74
2021/11/01 21:34:56;;;;;;;18.58;11.43;;;;;;;;;;5078637;28;20032;-73
2021/11/01 21:37:23;;;;;;;9.60;6.68;;;;;;;;;;5071507;28;20032;-73
2021/11/01 21:39:50;;;;;;;8.57;6.93;;;;;;;;;;5072969;28;20027;-73
2021/11/01 21:42:16;;;;;;;11.20;7.07;;;;;;;;;;5073225;28;20491;-74
2021/11/01 21:44:42;;;;;;;10.95;6.55;;;;;;;;;;5076601;28;20036;-74
2021/11/01 21:47:09;;;;;;;12.45;6.43;;;;;;;;;;5074341;28;20032;-74
2021/11/01 21:49:35;;;;;;;9.02;6.40;;;;;;;;;;5070460;28;20403;-75
2021/11/01 21:52:02;;;;;;;9.77;6.70;;;;;;;;;;5072128;28;20106;-74
2021/11/01 21:54:32;;;;;;;7.47;6.00;;;;;;;;;;5073896;28;20030;-74
2021/11/01 21:57:06;;;;;;;10.35;5.53;;;;;;;;;;5072487;28;20047;-74
2021/11/01 22:18:40;;;;;;;10.68;5.38;;;;;;;;;;5071632;28;20040;-74
2021/11/01 22:23:43;;;;;;;10.75;7.80;;;;;;;;;;5071135;28;20048;-75
2021/11/01 22:34:16;;;;;;;7.47;5.43;;;;;;;;;;5071440;28;20133;-74
2021/11/01 22:39:47;;;;;;;6.88;4.88;;;;;;;;;;5072524;28;20438;-75
2021/11/01 22:55:48;;;;;;;7.30;4.15;;;;;;;;;;5073340;28;20040;-74
2021/11/01 22:58:21;;;;;;;7.40;4.78;;;;;;;;;;5076543;28;20070;-73
2021/11/01 23:00:51;;;;;;;8.52;4.63;;;;;;;;;;5073387;28;20041;-74
2021/11/01 23:03:25;;;;;;;9.95;4.90;;;;;;;;;;5071312;28;20090;-75
2021/11/01 23:33:12;;;;;;;12.50;5.32;;;;;;;;;;5073691;28;20073;-74
2021/11/01 23:35:39;;;;;;;9.05;4.28;;;;;;;;;;5073833;28;20017;-74
2021/11/01 23:38:05;;;;;;;7.00;3.97;;;;;;;;;;5074649;28;20069;-74
2021/11/01 23:40:31;;;;;;;8.90;4.63;;;;;;;;;;5073006;28;20502;-74
2021/11/01 23:42:58;;;;;;;5.18;4.00;;;;;;;;;;5071766;28;20478;-74
2021/11/01 23:45:38;;;;;;;10.15;4.45;;;;;;;;;;5071939;28;20066;-73
2021/11/01 23:48:05;;;;;;;6.68;4.20;;;;;;;;;;5077112;28;20016;-75
2021/11/01 23:50:34;;;;;;;9.77;5.60;;;;;;;;;;5072085;28;20081;-75
2021/11/01 23:53:10;;;;;;;8.57;4.25;;;;;;;;;;5073330;28;20101;-74
2021/11/01 23:55:38;;;;;;;8.90;5.88;;;;;;;;;;5073805;28;20374;-73
2021/11/01 23:58:11;;;;;;;7.90;3.88;;;;;;;;;;5079864;28;20029;-74
